Time;durP1;ratioP1;P1;durP2;ratioP2;P2;SDS_P1;SDS_P2;PMS_P1;PMS_P2;Temp;Humidity;BMP_temperature;BMP_pressure;BME280_temperature;BME280_humidity;BME280_pressure;Samples;Min_cycle;Max_cycle;Signal;HPM_P1;HPM_P2
2022/03/07 00:00:34;;;;;;;;;;;0.20;99.90;;;;;;5140660;22;19923;-71
2022/03/07 00:03:01;;;;;;;;;;;0.20;99.90;;;;;;5121276;27;20455;-74
2022/03/07 00:05:27;;;;;;;;;;;0.20;99.90;;;;;;5115361;27;20366;-71
2022/03/07 00:07:54;;;;;;;;;;;0.20;99.90;;;;;;5115363;27;19923;-72
2022/03/07 00:10:21;;;;;;;;;;;0.20;99.90;;;;;;5114651;27;19989;-75
2022/03/07 00:12:49;;;;;;;;;;;0.20;99.90;;;;;;5115511;27;20010;-74
2022/03/07 00:15:17;;;;;;;;;;;0.10;99.90;;;;;;5115564;27;19924;-75
2022/03/07 00:17:43;;;;;;;;;;;0.10;99.90;;;;;;5115132;27;19931;-74
2022/03/07 00:20:11;;;;;;;;;;;0.10;99.90;;;;;;5114882;27;19934;-72
2022/03/07 00:22:37;;;;;;;;;;;0.00;99.90;;;;;;5114726;27;19931;-72
2022/03/07 00:25:05;;;;;;;;;;;-0.10;99.90;;;;;;5115012;27;19932;-74
2022/03/07 00:27:32;;;;;;;;;;;-0.10;99.90;;;;;;5115241;27;19954;-74
2022/03/07 00:30:00;;;;;;;;;;;-0.20;99.90;;;;;;5114840;27;19924;-75
2022/03/07 00:32:27;;;;;;;;;;;-0.20;99.90;;;;;;5114946;27;19923;-74
2022/03/07 00:34:54;;;;;;;;;;;-0.30;99.90;;;;;;5114851;27;19954;-75
2022/03/07 00:37:21;;;;;;;;;;;-0.30;99.90;;;;;;5114775;27;19946;-75
2022/03/07 00:39:48;;;;;;;;;;;-0.40;99.90;;;;;;5114511;27;19923;-75
2022/03/07 00:42:15;;;;;;;;;;;-0.40;99.90;;;;;;5114761;27;19923;-72
2022/03/07 00:44:41;;;;;;;;;;;-0.50;99.90;;;;;;5114684;27;19923;-72
2022/03/07 00:47:10;;;;;;;;;;;-0.50;99.90;;;;;;5114625;27;19923;-72
2022/03/07 00:49:37;;;;;;;;;;;-0.50;99.90;;;;;;5113851;27;19931;-72
2022/03/07 00:52:04;;;;;;;;;;;-0.50;99.90;;;;;;5114349;27;19938;-72
2022/03/07 00:54:32;;;;;;;;;;;-0.40;99.90;;;;;;5114828;27;19976;-72
2022/03/07 00:56:59;;;;;;;;;;;-0.40;99.90;;;;;;5114445;27;19927;-72
2022/03/07 00:59:26;;;;;;;;;;;-0.30;99.90;;;;;;5114018;27;20313;-72
2022/03/07 01:01:52;;;;;;;;;;;-0.30;99.90;;;;;;5114392;27;19923;-72
2022/03/07 01:04:22;;;;;;;;;;;-0.30;99.90;;;;;;5113844;27;19927;-72
2022/03/07 01:06:49;;;;;;;;;;;-0.30;99.90;;;;;;5114526;27;19927;-74
2022/03/07 01:09:16;;;;;;;;;;;-0.40;99.90;;;;;;5113750;27;19934;-72
2022/03/07 01:11:43;;;;;;;;;;;-0.40;99.90;;;;;;5114190;27;19924;-72
2022/03/07 01:14:09;;;;;;;;;;;-0.40;99.90;;;;;;5113972;27;19941;-72
2022/03/07 01:16:36;;;;;;;;;;;-0.40;99.90;;;;;;5114170;27;19924;-72
2022/03/07 01:19:03;;;;;;;;;;;-0.40;99.90;;;;;;5113364;27;19931;-72
2022/03/07 01:21:31;;;;;;;;;;;-0.40;99.90;;;;;;5114158;27;19924;-73
2022/03/07 01:23:58;;;;;;;;;;;-0.40;99.90;;;;;;5113865;27;19930;-72
2022/03/07 01:26:25;;;;;;;;;;;-0.40;99.90;;;;;;5114102;27;19931;-72
2022/03/07 01:28:52;;;;;;;;;;;-0.40;99.90;;;;;;5113459;27;19931;-72
2022/03/07 01:31:18;;;;;;;;;;;-0.40;99.90;;;;;;5113027;27;20420;-72
2022/03/07 01:33:45;;;;;;;;;;;-0.50;99.90;;;;;;5112611;27;19928;-72
2022/03/07 01:36:14;;;;;;;;;;;-0.50;99.90;;;;;;5113544;27;19923;-72
2022/03/07 01:38:42;;;;;;;;;;;-0.50;99.90;;;;;;5113264;27;19938;-72
2022/03/07 01:41:09;;;;;;;;;;;-0.60;99.90;;;;;;5113052;27;19930;-72
2022/03/07 01:43:36;;;;;;;;;;;-0.70;99.90;;;;;;5113670;27;19955;-72
2022/03/07 01:46:02;;;;;;;;;;;-0.80;99.90;;;;;;5113419;27;19931;-72
2022/03/07 01:48:29;;;;;;;;;;;-0.90;99.90;;;;;;5113814;28;19924;-72
2022/03/07 01:50:56;;;;;;;;;;;-0.90;99.90;;;;;;5113284;28;20305;-74
2022/03/07 01:53:24;;;;;;;;;;;-1.00;99.90;;;;;;5122395;28;20397;-74
2022/03/07 01:55:52;;;;;;;;;;;-1.00;99.90;;;;;;5117904;28;20009;-74
2022/03/07 01:58:19;;;;;;;;;;;-1.00;99.90;;;;;;5113658;28;19930;-75
2022/03/07 02:00:47;;;;;;;;;;;-1.00;99.90;;;;;;5112955;28;19924;-74
2022/03/07 02:03:13;;;;;;;;;;;-1.10;99.90;;;;;;5113644;28;19924;-75
2022/03/07 02:05:46;;;;;;;;;;;-1.10;99.90;;;;;;5113380;28;19930;-75
2022/03/07 02:08:18;;;;;;;;;;;-1.10;99.90;;;;;;5116897;28;20026;-74
2022/03/07 02:10:55;;;;;;;;;;;-1.20;99.90;;;;;;5124070;28;20362;-75
2022/03/07 02:13:22;;;;;;;;;;;-1.10;99.90;;;;;;5118250;28;20426;-72
2022/03/07 02:15:53;;;;;;;;;;;-1.10;99.90;;;;;;5113390;28;20015;-72
2022/03/07 02:18:21;;;;;;;;;;;-1.10;99.90;;;;;;5112863;28;19976;-72
2022/03/07 02:20:50;;;;;;;;;;;-1.10;99.90;;;;;;5112799;28;20356;-72
2022/03/07 02:23:19;;;;;;;;;;;-1.20;99.90;;;;;;5113098;28;19923;-72
2022/03/07 02:25:47;;;;;;;;;;;-1.30;99.90;;;;;;5112969;28;20398;-71
2022/03/07 02:28:16;;;;;;;;;;;-1.30;99.90;;;;;;5112646;28;20031;-72
2022/03/07 02:30:43;;;;;;;;;;;-1.30;99.90;;;;;;5112875;28;20302;-72
2022/03/07 02:33:13;;;;;;;;;;;-1.40;99.90;;;;;;5113277;28;20298;-72
2022/03/07 02:35:43;;;;;;;;;;;-1.40;99.90;;;;;;5130349;28;19928;-72
2022/03/07 02:38:14;;;;;;;;;;;-1.50;99.90;;;;;;5113203;28;19923;-73
2022/03/07 02:40:46;;;;;;;;;;;-1.50;99.90;;;;;;5112931;27;19927;-71
2022/03/07 02:43:14;;;;;;;;;;;-1.50;99.90;;;;;;5116754;27;19968;-72
2022/03/07 02:45:42;;;;;;;;;;;-1.40;99.90;;;;;;5116850;27;19959;-72
2022/03/07 02:48:09;;;;;;;;;;;-1.40;99.90;;;;;;5117061;27;19924;-72
2022/03/07 02:50:35;;;;;;;;;;;-1.40;99.90;;;;;;5116328;27;19946;-72
2022/03/07 02:53:03;;;;;;;;;;;-1.40;99.90;;;;;;5117168;27;19923;-71
2022/03/07 02:55:31;;;;;;;;;;;-1.40;99.90;;;;;;5116804;27;20340;-72
2022/03/07 02:57:59;;;;;;;;;;;-1.40;99.90;;;;;;5117035;27;19935;-72
2022/03/07 03:00:26;;;;;;;;;;;-1.50;99.90;;;;;;5116142;27;20037;-72
2022/03/07 03:02:54;;;;;;;;;;;-1.50;99.90;;;;;;5116721;27;19927;-72
2022/03/07 03:05:21;;;;;;;;;;;-1.50;99.90;;;;;;5116465;27;19923;-72
2022/03/07 03:07:48;;;;;;;;;;;-1.50;99.90;;;;;;5116980;27;19927;-72
2022/03/07 03:10:15;;;;;;;;;;;-1.60;99.90;;;;;;5116194;27;20010;-72
2022/03/07 03:12:42;;;;;;;;;;;-1.60;99.90;;;;;;5133901;27;19923;-72
2022/03/07 03:15:10;;;;;;;;;;;-1.60;99.90;;;;;;5116543;27;19923;-70
2022/03/07 03:17:39;;;;;;;;;;;-1.60;99.90;;;;;;5116599;27;19931;-72
2022/03/07 03:20:06;;;;;;;;;;;-1.70;99.90;;;;;;5115924;27;19924;-72
2022/03/07 03:22:33;;;;;;;;;;;-1.70;99.90;;;;;;5116344;27;19923;-73
2022/03/07 03:25:00;;;;;;;;;;;-1.70;99.90;;;;;;5116438;27;19927;-73
2022/03/07 03:27:26;;;;;;;;;;;-1.70;99.90;;;;;;5116355;27;19976;-73
2022/03/07 03:29:53;;;;;;;;;;;-1.70;99.90;;;;;;5115556;27;19937;-73
2022/03/07 03:32:21;;;;;;;;;;;-1.70;99.90;;;;;;5116014;27;20173;-73
2022/03/07 03:34:48;;;;;;;;;;;-1.70;99.90;;;;;;5118337;27;19930;-72
2022/03/07 03:37:15;;;;;;;;;;;-1.70;99.90;;;;;;5124232;27;19930;-72
2022/03/07 03:39:42;;;;;;;;;;;-1.80;99.90;;;;;;5116038;27;19966;-72
2022/03/07 03:42:08;;;;;;;;;;;-1.70;99.90;;;;;;5125054;27;19927;-73
2022/03/07 03:44:35;;;;;;;;;;;-1.70;99.90;;;;;;5133797;27;19923;-72
2022/03/07 03:47:02;;;;;;;;;;;-1.70;99.90;;;;;;5134035;27;19927;-72
2022/03/07 03:49:31;;;;;;;;;;;-1.60;99.90;;;;;;5132944;27;19927;-72
2022/03/07 03:51:57;;;;;;;;;;;-1.50;99.90;;;;;;5121873;27;20375;-72
2022/03/07 03:54:24;;;;;;;;;;;-1.40;99.90;;;;;;5133260;27;19977;-72
2022/03/07 03:56:51;;;;;;;;;;;-1.20;99.90;;;;;;5116171;27;20379;-72
2022/03/07 03:59:18;;;;;;;;;;;-1.20;99.90;;;;;;5115922;27;20361;-73
2022/03/07 04:01:45;;;;;;;;;;;-1.10;99.90;;;;;;5116271;27;20038;-73
2022/03/07 04:04:11;;;;;;;;;;;-1.00;99.90;;;;;;5116510;27;20371;-73
2022/03/07 04:06:40;;;;;;;;;;;-1.10;99.90;;;;;;5116424;27;20390;-74
2022/03/07 04:09:06;;;;;;;;;;;-1.00;99.90;;;;;;5115819;27;19927;-73
2022/03/07 04:11:33;;;;;;;;;;;-1.00;99.90;;;;;;5116200;27;19931;-72
2022/03/07 04:14:00;;;;;;;;;;;-1.00;99.90;;;;;;5116060;27;20352;-73
2022/03/07 04:16:27;;;;;;;;;;;-1.00;99.90;;;;;;5116346;27;19934;-73
2022/03/07 04:18:53;;;;;;;;;;;-1.00;99.90;;;;;;5115599;27;20386;-72
2022/03/07 04:21:20;;;;;;;;;;;-1.00;99.90;;;;;;5116213;27;19927;-72
2022/03/07 04:23:48;;;;;;;;;;;-1.00;99.90;;;;;;5115829;27;19934;-73
2022/03/07 04:26:16;;;;;;;;;;;-1.00;99.90;;;;;;5115950;27;19927;-72
2022/03/07 04:28:43;;;;;;;;;;;-1.00;99.90;;;;;;5115568;27;20425;-72
2022/03/07 04:31:09;;;;;;;;;;;-0.90;99.90;;;;;;5115675;27;19927;-71
2022/03/07 04:33:36;;;;;;;;;;;-0.90;99.90;;;;;;5116310;27;19927;-72
2022/03/07 04:36:03;;;;;;;;;;;-1.00;99.90;;;;;;5115400;27;19931;-73
2022/03/07 04:38:30;;;;;;;;;;;-1.00;99.90;;;;;;5115636;27;19924;-72
2022/03/07 04:40:59;;;;;;;;;;;-1.00;99.90;;;;;;5115105;27;19976;-72
2022/03/07 04:43:25;;;;;;;;;;;-1.00;99.90;;;;;;5115820;27;19924;-72
2022/03/07 04:45:53;;;;;;;;;;;-1.10;99.90;;;;;;5115610;27;20386;-72
2022/03/07 04:48:20;;;;;;;;;;;-1.20;99.90;;;;;;5116049;27;20019;-73
2022/03/07 04:50:47;;;;;;;;;;;-1.30;99.90;;;;;;5132393;27;19923;-73
2022/03/07 04:53:14;;;;;;;;;;;-1.40;99.90;;;;;;5115854;27;19923;-73
2022/03/07 04:55:40;;;;;;;;;;;-1.50;99.90;;;;;;5115492;27;20339;-73
2022/03/07 04:58:09;;;;;;;;;;;-1.50;99.90;;;;;;5115653;27;19923;-72
2022/03/07 05:00:35;;;;;;;;;;;-1.60;99.90;;;;;;5114839;27;19924;-73
2022/03/07 05:03:02;;;;;;;;;;;-1.60;99.90;;;;;;5115324;27;19923;-73
2022/03/07 05:05:29;;;;;;;;;;;-1.70;99.90;;;;;;5114498;27;19927;-74
2022/03/07 05:07:56;;;;;;;;;;;-1.70;99.90;;;;;;5115325;27;19927;-72
2022/03/07 05:10:22;;;;;;;;;;;-1.80;99.90;;;;;;5114886;27;19924;-72
2022/03/07 05:12:49;;;;;;;;;;;-1.70;99.90;;;;;;5115115;27;19927;-73
2022/03/07 05:15:17;;;;;;;;;;;-1.70;99.90;;;;;;5115163;27;19923;-74
2022/03/07 05:17:45;;;;;;;;;;;-1.70;99.90;;;;;;5115476;27;20044;-74
2022/03/07 05:20:12;;;;;;;;;;;-1.80;99.90;;;;;;5114641;27;19930;-75
2022/03/07 05:22:39;;;;;;;;;;;-1.80;99.90;;;;;;5115122;27;20332;-73
2022/03/07 05:25:07;;;;;;;;;;;-1.80;99.90;;;;;;5115214;27;19927;-73
2022/03/07 05:27:33;;;;;;;;;;;-1.80;99.90;;;;;;5114928;27;19927;-74
2022/03/07 05:30:00;;;;;;;;;;;-1.80;99.90;;;;;;5114699;27;19930;-73
2022/03/07 05:32:28;;;;;;;;;;;-1.80;99.90;;;;;;5115145;27;19927;-74
2022/03/07 05:34:55;;;;;;;;;;;-1.90;99.90;;;;;;5115156;28;19923;-74
2022/03/07 05:37:22;;;;;;;;;;;-1.90;99.90;;;;;;5113811;27;19990;-74
2022/03/07 05:39:49;;;;;;;;;;;-1.90;99.90;;;;;;5113338;27;19924;-74
2022/03/07 05:42:16;;;;;;;;;;;-1.90;99.90;;;;;;5114612;27;19927;-74
2022/03/07 05:44:42;;;;;;;;;;;-1.80;99.90;;;;;;5114033;27;19927;-74
2022/03/07 05:47:09;;;;;;;;;;;-1.90;99.90;;;;;;5125700;27;19928;-74
2022/03/07 05:49:37;;;;;;;;;;;-1.80;99.90;;;;;;5113726;28;20344;-73
2022/03/07 05:52:04;;;;;;;;;;;-1.80;99.90;;;;;;5094344;28;19969;-73
2022/03/07 05:54:31;;;;;;;;;;;-1.80;99.90;;;;;;5111416;28;19924;-73
2022/03/07 05:56:58;;;;;;;;;;;-1.80;99.90;;;;;;5094322;28;20330;-73
2022/03/07 05:59:25;;;;;;;;;;;-1.80;99.90;;;;;;5107092;28;19924;-74
2022/03/07 06:01:52;;;;;;;;;;;-1.80;99.90;;;;;;5127296;28;19941;-73
2022/03/07 06:04:18;;;;;;;;;;;-1.90;99.90;;;;;;5130741;28;19924;-74
2022/03/07 06:06:47;;;;;;;;;;;-1.90;99.90;;;;;;5131610;28;19923;-74
2022/03/07 06:09:13;;;;;;;;;;;-1.90;99.90;;;;;;5130925;28;20502;-74
2022/03/07 06:11:40;;;;;;;;;;;-1.90;99.90;;;;;;5131526;28;19928;-75
2022/03/07 06:14:07;;;;;;;;;;;-1.80;99.90;;;;;;5131739;28;19923;-74
2022/03/07 06:16:34;;;;;;;;;;;-1.70;99.90;;;;;;5125535;27;19942;-74
2022/03/07 06:19:01;;;;;;;;;;;-1.70;99.90;;;;;;5116137;27;19927;-75
2022/03/07 06:21:27;;;;;;;;;;;-1.70;99.90;;;;;;5115193;27;19923;-75
2022/03/07 06:23:56;;;;;;;;;;;-1.60;99.90;;;;;;5119791;27;19972;-75
2022/03/07 06:26:23;;;;;;;;;;;-1.60;99.90;;;;;;5117267;27;20015;-75
2022/03/07 06:28:50;;;;;;;;;;;-1.50;99.90;;;;;;5117103;27;19924;-73
2022/03/07 06:31:17;;;;;;;;;;;-1.60;99.90;;;;;;5117298;27;19943;-75
2022/03/07 06:33:44;;;;;;;;;;;-1.50;99.90;;;;;;5117751;27;19927;-74
2022/03/07 06:36:11;;;;;;;;;;;-1.40;99.90;;;;;;5117401;27;19924;-74
2022/03/07 06:38:39;;;;;;;;;;;-1.30;99.90;;;;;;5117110;27;20469;-73
2022/03/07 06:41:07;;;;;;;;;;;-1.30;99.90;;;;;;5117011;27;19930;-73
2022/03/07 06:43:34;;;;;;;;;;;-1.30;99.90;;;;;;5117541;27;19923;-75
2022/03/07 06:46:01;;;;;;;;;;;-1.20;99.90;;;;;;5117299;27;20010;-75
2022/03/07 06:48:28;;;;;;;;;;;-1.10;99.90;;;;;;5117479;27;19952;-75
2022/03/07 06:50:55;;;;;;;;;;;-1.00;99.90;;;;;;5116515;27;19923;-74
2022/03/07 06:53:22;;;;;;;;;;;-0.90;99.90;;;;;;5117210;27;19924;-74
2022/03/07 06:55:48;;;;;;;;;;;-0.90;99.90;;;;;;5117429;27;19949;-75
2022/03/07 06:58:17;;;;;;;;;;;-0.80;99.90;;;;;;5117280;27;20279;-75
2022/03/07 07:00:44;;;;;;;;;;;-0.70;99.90;;;;;;5116840;27;19923;-75
2022/03/07 07:03:10;;;;;;;;;;;-0.70;99.90;;;;;;5117161;27;19927;-74
2022/03/07 07:05:37;;;;;;;;;;;-0.60;99.90;;;;;;5117173;27;19972;-75
2022/03/07 07:08:04;;;;;;;;;;;-0.60;99.90;;;;;;5116969;27;19932;-75
2022/03/07 07:10:31;;;;;;;;;;;-0.50;99.90;;;;;;5116233;27;19935;-75
2022/03/07 07:12:58;;;;;;;;;;;-0.50;99.90;;;;;;5133851;27;19946;-75
2022/03/07 07:15:26;;;;;;;;;;;-0.40;99.90;;;;;;5116733;27;19930;-73
2022/03/07 07:17:53;;;;;;;;;;;-0.30;99.90;;;;;;5121441;27;19923;-75
2022/03/07 07:20:20;;;;;;;;;;;-0.30;99.90;;;;;;5127486;27;19929;-74
2022/03/07 07:22:46;;;;;;;;;;;-0.20;99.90;;;;;;5116499;27;19923;-74
2022/03/07 07:25:13;;;;;;;;;;;-0.10;99.90;;;;;;5116256;27;19931;-75
2022/03/07 07:27:40;;;;;;;;;;;-0.10;99.90;;;;;;5115183;27;19931;-74
2022/03/07 07:30:09;;;;;;;;;;;0.00;99.90;;;;;;5150272;27;19924;-74
2022/03/07 07:32:38;;;;;;;;;;;0.10;99.90;;;;;;5116433;27;20374;-75
2022/03/07 07:35:06;;;;;;;;;;;0.20;99.90;;;;;;5116386;27;19931;-74
2022/03/07 07:37:32;;;;;;;;;;;0.20;99.90;;;;;;5116360;27;19976;-75
2022/03/07 07:39:59;;;;;;;;;;;0.30;99.90;;;;;;5115379;27;20347;-75
2022/03/07 07:42:26;;;;;;;;;;;0.40;99.90;;;;;;5115883;27;19927;-75
2022/03/07 07:44:55;;;;;;;;;;;0.40;99.90;;;;;;5116092;27;20524;-75
2022/03/07 07:47:21;;;;;;;;;;;0.60;99.90;;;;;;5115969;27;19931;-75
2022/03/07 07:49:50;;;;;;;;;;;0.60;99.90;;;;;;5115611;27;19924;-75
2022/03/07 07:52:16;;;;;;;;;;;0.70;99.90;;;;;;5116563;27;19969;-76
2022/03/07 07:54:43;;;;;;;;;;;0.70;99.90;;;;;;5115148;27;19979;-74
2022/03/07 07:57:12;;;;;;;;;;;0.80;99.90;;;;;;5111886;27;19931;-76
2022/03/07 07:59:39;;;;;;;;;;;0.80;99.90;;;;;;5125063;27;19946;-75
2022/03/07 08:02:06;;;;;;;;;;;0.90;99.90;;;;;;5131543;27;19924;-75
2022/03/07 08:04:33;;;;;;;;;;;1.00;99.90;;;;;;5119254;27;19924;-74
2022/03/07 08:07:01;;;;;;;;;;;1.10;99.90;;;;;;5115576;27;19924;-75
2022/03/07 08:09:28;;;;;;;;;;;1.10;99.90;;;;;;5113231;27;19930;-75
2022/03/07 08:11:54;;;;;;;;;;;1.20;99.90;;;;;;5112837;28;19931;-75
2022/03/07 08:14:21;;;;;;;;;;;1.20;99.90;;;;;;5117873;27;19931;-74
2022/03/07 08:16:48;;;;;;;;;;;1.30;99.90;;;;;;5105916;28;19931;-75
2022/03/07 08:19:15;;;;;;;;;;;1.40;99.90;;;;;;5131362;27;19924;-75
2022/03/07 08:21:42;;;;;;;;;;;1.40;99.90;;;;;;5133649;27;19927;-75
2022/03/07 08:24:10;;;;;;;;;;;1.50;99.90;;;;;;5133509;27;19930;-75
2022/03/07 08:26:38;;;;;;;;;;;1.50;99.90;;;;;;5133381;27;19930;-74
2022/03/07 08:29:05;;;;;;;;;;;1.60;99.90;;;;;;5133049;27;19927;-73
2022/03/07 08:31:32;;;;;;;;;;;1.70;99.90;;;;;;5126320;27;19931;-75
2022/03/07 08:33:59;;;;;;;;;;;1.80;99.90;;;;;;5117719;27;19934;-74
2022/03/07 08:36:26;;;;;;;;;;;1.80;99.90;;;;;;5115428;27;19923;-75
2022/03/07 08:38:53;;;;;;;;;;;1.90;99.90;;;;;;5114650;27;19968;-75
2022/03/07 08:41:21;;;;;;;;;;;1.90;99.90;;;;;;5110485;27;19931;-75
2022/03/07 08:43:49;;;;;;;;;;;2.00;99.90;;;;;;5129282;27;20010;-75
2022/03/07 08:46:18;;;;;;;;;;;2.00;99.90;;;;;;5114049;27;20538;-75
2022/03/07 08:48:44;;;;;;;;;;;2.10;99.90;;;;;;5138545;27;19928;-75
2022/03/07 08:51:11;;;;;;;;;;;2.10;99.90;;;;;;5119104;27;19924;-75
2022/03/07 08:53:38;;;;;;;;;;;2.10;99.90;;;;;;5114702;27;20305;-75
2022/03/07 08:56:05;;;;;;;;;;;2.10;99.90;;;;;;5111939;27;19923;-74
2022/03/07 08:58:33;;;;;;;;;;;2.20;99.90;;;;;;5117988;27;19931;-74
2022/03/07 09:01:00;;;;;;;;;;;2.20;99.90;;;;;;5132056;27;19927;-75
2022/03/07 09:03:27;;;;;;;;;;;2.20;99.90;;;;;;5128657;27;19924;-74
2022/03/07 09:05:54;;;;;;;;;;;2.30;99.90;;;;;;5113705;27;19924;-75
2022/03/07 09:08:21;;;;;;;;;;;2.40;99.90;;;;;;5116290;27;19923;-74
2022/03/07 09:10:47;;;;;;;;;;;2.40;99.90;;;;;;5121519;27;19927;-75
2022/03/07 09:13:14;;;;;;;;;;;2.30;99.90;;;;;;5114951;27;19923;-75
2022/03/07 09:15:45;;;;;;;;;;;2.40;99.90;;;;;;5115177;27;19924;-74
2022/03/07 09:18:12;;;;;;;;;;;2.40;99.90;;;;;;5127425;27;19924;-74
2022/03/07 09:20:39;;;;;;;;;;;2.50;99.90;;;;;;5114003;27;19924;-74
2022/03/07 09:23:06;;;;;;;;;;;2.50;99.90;;;;;;5117718;27;19997;-74
2022/03/07 09:25:33;;;;;;;;;;;2.50;99.90;;;;;;5115055;27;19938;-74
2022/03/07 09:28:00;;;;;;;;;;;2.50;99.90;;;;;;5115173;27;19927;-75
2022/03/07 09:30:27;;;;;;;;;;;2.60;99.90;;;;;;5115221;27;19923;-74
2022/03/07 09:32:57;;;;;;;;;;;2.70;99.90;;;;;;5123406;27;19923;-74
2022/03/07 09:35:24;;;;;;;;;;;2.80;99.90;;;;;;5115201;27;19962;-74
2022/03/07 09:37:51;;;;;;;;;;;2.90;99.90;;;;;;5118554;27;19923;-74
2022/03/07 09:40:18;;;;;;;;;;;3.00;99.90;;;;;;5123201;27;19928;-74
2022/03/07 09:42:46;;;;;;;;;;;3.10;99.90;;;;;;5132261;27;19923;-74
2022/03/07 09:45:13;;;;;;;;;;;3.20;99.90;;;;;;5120097;27;19938;-74
2022/03/07 09:47:41;;;;;;;;;;;3.10;99.90;;;;;;5119511;27;20027;-74
2022/03/07 09:50:10;;;;;;;;;;;3.10;99.90;;;;;;5113656;27;19923;-75
2022/03/07 09:52:37;;;;;;;;;;;3.20;99.90;;;;;;5114221;27;19938;-74
2022/03/07 09:55:04;;;;;;;;;;;3.30;99.90;;;;;;5114883;28;19934;-75
2022/03/07 09:57:32;;;;;;;;;;;3.30;99.90;;;;;;5122882;28;19931;-74
2022/03/07 09:59:59;;;;;;;;;;;3.30;99.90;;;;;;5127399;28;19994;-75
2022/03/07 10:02:26;;;;;;;;;;;3.40;99.90;;;;;;5116347;28;20409;-75
2022/03/07 10:04:53;;;;;;;;;;;3.50;99.90;;;;;;5116903;28;19928;-75
2022/03/07 10:07:21;;;;;;;;;;;3.60;99.90;;;;;;5111397;27;20413;-74
2022/03/07 10:09:48;;;;;;;;;;;3.70;99.90;;;;;;5116749;28;19923;-74
2022/03/07 10:12:15;;;;;;;;;;;3.80;99.90;;;;;;5116498;28;19924;-74
2022/03/07 10:14:45;;;;;;;;;;;3.80;99.90;;;;;;5116129;28;20414;-73
2022/03/07 10:17:31;;;;;;;;;;;3.80;99.90;;;;;;5123080;28;20389;-74
2022/03/07 10:20:02;;;;;;;;;;;3.90;99.90;;;;;;5131454;28;19930;-74
2022/03/07 10:22:30;;;;;;;;;;;4.00;99.90;;;;;;5132048;28;19923;-74
2022/03/07 10:24:58;;;;;;;;;;;4.10;99.90;;;;;;5131914;28;19931;-74
2022/03/07 10:27:26;;;;;;;;;;;4.30;99.90;;;;;;5118686;28;19923;-74
2022/03/07 10:29:53;;;;;;;;;;;4.40;99.90;;;;;;5120961;28;19927;-77
2022/03/07 10:32:20;;;;;;;;;;;4.50;99.90;;;;;;5122973;28;19924;-73
2022/03/07 10:34:47;;;;;;;;;;;4.60;99.90;;;;;;5124809;28;19929;-73
2022/03/07 10:37:13;;;;;;;;;;;4.70;99.90;;;;;;5132707;28;19928;-73
2022/03/07 10:39:48;;;;;;;;;;;4.80;99.90;;;;;;5132302;28;19923;-73
2022/03/07 10:42:18;;;;;;;;;;;5.00;99.90;;;;;;5132745;28;19923;-73
2022/03/07 10:44:45;;;;;;;;;;;5.00;99.90;;;;;;5133708;28;19928;-73
2022/03/07 10:47:13;;;;;;;;;;;5.10;99.90;;;;;;5133005;28;19923;-73
2022/03/07 10:49:51;;;;;;;;;;;5.20;99.90;;;;;;5133325;28;19930;-73
2022/03/07 10:52:18;;;;;;;;;;;5.40;99.90;;;;;;5133644;28;19928;-74
2022/03/07 10:54:47;;;;;;;;;;;5.50;99.90;;;;;;5135129;28;20446;-74
2022/03/07 10:57:15;;;;;;;;;;;5.60;99.70;;;;;;5132980;28;19931;-74
2022/03/07 10:59:42;;;;;;;;;;;5.70;99.90;;;;;;5130993;28;19927;-74
2022/03/07 11:02:10;;;;;;;;;;;5.70;99.60;;;;;;5132528;27;19924;-74
2022/03/07 11:04:38;;;;;;;;;;;6.00;99.90;;;;;;5134952;27;19931;-74
2022/03/07 11:07:05;;;;;;;;;;;8.70;99.90;;;;;;5135577;27;19923;-75
2022/03/07 11:09:32;;;;;;;;;;;14.30;95.20;;;;;;5136385;27;19935;-74
2022/03/07 11:11:59;;;;;;;;;;;17.40;91.00;;;;;;5135001;27;19931;-74
2022/03/07 11:14:28;;;;;;;;;;;19.50;86.80;;;;;;5134817;27;19976;-74
2022/03/07 11:16:56;;;;;;;;;;;19.70;93.50;;;;;;5134867;27;19930;-74
2022/03/07 11:19:23;;;;;;;;;;;20.20;94.20;;;;;;5134417;27;19924;-75
2022/03/07 11:21:51;;;;;;;;;;;20.90;92.60;;;;;;5135909;27;19923;-75
2022/03/07 11:24:18;;;;;;;;;;;21.00;91.30;;;;;;5132558;27;19927;-76
2022/03/07 11:26:46;;;;;;;;;;;19.90;90.10;;;;;;5117486;27;19923;-74
2022/03/07 11:29:12;;;;;;;;;;;21.50;89.90;;;;;;5120922;27;19930;-75
2022/03/07 11:31:41;;;;;;;;;;;22.60;89.10;;;;;;5140354;27;19940;-75
2022/03/07 11:34:08;;;;;;;;;;;23.90;83.40;;;;;;5134500;27;19923;-75
2022/03/07 11:36:37;;;;;;;;;;;23.70;77.90;;;;;;5134304;27;19928;-74
2022/03/07 11:39:04;;;;;;;;;;;21.80;76.00;;;;;;5134087;27;20326;-75
2022/03/07 11:41:32;;;;;;;;;;;21.10;75.00;;;;;;5133258;27;20348;-75
2022/03/07 11:44:00;;;;;;;;;;;20.80;75.40;;;;;;5133311;27;19924;-75
2022/03/07 11:46:29;;;;;;;;;;;21.50;75.70;;;;;;5119036;27;19923;-75
2022/03/07 11:48:57;;;;;;;;;;;22.10;75.00;;;;;;5123094;27;19924;-75
2022/03/07 11:51:25;;;;;;;;;;;23.80;76.80;;;;;;5134062;27;19923;-75
2022/03/07 11:53:53;;;;;;;;;;;22.20;74.70;;;;;;5134579;27;20439;-75
2022/03/07 11:56:20;;;;;;;;;;;22.70;75.30;;;;;;5134062;27;20329;-75
2022/03/07 11:58:49;;;;;;;;;;;22.70;74.30;;;;;;5133885;27;19923;-74
2022/03/07 12:01:16;;;;;;;;;;;23.40;73.80;;;;;;5133663;27;19928;-75
2022/03/07 12:03:43;;;;;;;;;;;23.60;74.70;;;;;;5118779;27;19974;-75
2022/03/07 12:06:13;;;;;;;;;;;24.30;75.00;;;;;;5118674;27;19923;-75
2022/03/07 12:08:45;;;;;;;;;;;24.10;73.50;;;;;;5124790;27;19955;-74
2022/03/07 12:11:23;;;;;;;;;;;23.70;73.80;;;;;;5133603;27;20019;-75
2022/03/07 12:13:50;;;;;;;;;;;24.50;73.50;;;;;;5123535;27;19923;-76
2022/03/07 12:16:27;;;;;;;;;;;24.80;73.00;;;;;;5119976;27;19935;-76
2022/03/07 12:18:55;;;;;;;;;;;25.10;72.80;;;;;;5112331;27;20379;-75
2022/03/07 12:21:26;;;;;;;;;;;23.00;71.60;;;;;;5115759;27;19923;-75
2022/03/07 12:23:53;;;;;;;;;;;22.90;71.80;;;;;;5114184;27;19971;-75
2022/03/07 12:26:20;;;;;;;;;;;22.70;72.50;;;;;;5115135;27;19923;-76
2022/03/07 12:28:48;;;;;;;;;;;24.30;72.70;;;;;;5126527;27;19923;-75
2022/03/07 12:31:15;;;;;;;;;;;23.20;71.10;;;;;;5117875;27;20188;-74
2022/03/07 12:33:43;;;;;;;;;;;24.40;71.70;;;;;;5117423;27;19931;-74
2022/03/07 12:36:12;;;;;;;;;;;24.80;72.30;;;;;;5123607;27;19927;-75
2022/03/07 12:38:45;;;;;;;;;;;25.70;71.70;;;;;;5129347;27;19930;-76
2022/03/07 12:41:13;;;;;;;;;;;26.00;72.50;;;;;;5126237;27;19968;-76
2022/03/07 12:43:40;;;;;;;;;;;25.90;71.40;;;;;;5132197;27;20445;-75
2022/03/07 12:46:07;;;;;;;;;;;26.00;71.40;;;;;;5132560;27;19923;-75
2022/03/07 12:48:37;;;;;;;;;;;26.40;71.60;;;;;;5132139;27;19924;-74
2022/03/07 12:51:05;;;;;;;;;;;26.40;71.00;;;;;;5131677;27;20382;-76
2022/03/07 12:53:31;;;;;;;;;;;24.70;70.60;;;;;;5131941;27;19972;-76
2022/03/07 12:56:03;;;;;;;;;;;25.20;71.50;;;;;;5131930;27;19972;-75
2022/03/07 12:58:30;;;;;;;;;;;25.70;69.90;;;;;;5131594;27;20018;-75
2022/03/07 13:00:57;;;;;;;;;;;24.30;69.60;;;;;;5130794;27;20435;-75
2022/03/07 13:03:24;;;;;;;;;;;23.40;69.70;;;;;;5131486;27;19930;-76
2022/03/07 13:06:00;;;;;;;;;;;24.00;70.30;;;;;;5131591;27;20018;-75
2022/03/07 13:08:26;;;;;;;;;;;24.00;71.10;;;;;;5131473;27;19932;-76
2022/03/07 13:10:53;;;;;;;;;;;24.40;70.20;;;;;;5127999;27;19927;-75
2022/03/07 13:13:21;;;;;;;;;;;23.40;69.20;;;;;;5114582;27;19927;-76
2022/03/07 13:15:48;;;;;;;;;;;23.00;70.10;;;;;;5114546;27;19969;-76
2022/03/07 13:18:15;;;;;;;;;;;23.00;69.30;;;;;;5114165;27;20406;-77
2022/03/07 13:20:42;;;;;;;;;;;22.90;70.00;;;;;;5113841;27;19923;-74
2022/03/07 13:23:09;;;;;;;;;;;23.30;69.70;;;;;;5114115;27;19983;-75
2022/03/07 13:25:38;;;;;;;;;;;22.20;67.70;;;;;;5113303;28;19927;-75
2022/03/07 13:28:06;;;;;;;;;;;22.00;69.30;;;;;;5113863;27;20031;-76
2022/03/07 13:30:35;;;;;;;;;;;21.90;69.00;;;;;;5113270;27;20021;-76
2022/03/07 13:33:05;;;;;;;;;;;22.70;69.90;;;;;;5113853;27;19972;-75
2022/03/07 13:35:32;;;;;;;;;;;23.90;69.70;;;;;;5114090;27;19963;-75
2022/03/07 13:38:00;;;;;;;;;;;23.70;69.50;;;;;;5114107;27;19927;-76
2022/03/07 13:40:27;;;;;;;;;;;20.60;68.80;;;;;;5113257;27;19927;-72
2022/03/07 13:42:54;;;;;;;;;;;20.70;68.90;;;;;;5113663;27;19923;-74
2022/03/07 13:45:22;;;;;;;;;;;20.60;69.30;;;;;;5113880;27;19947;-74
2022/03/07 13:47:54;;;;;;;;;;;20.50;68.10;;;;;;5113671;27;19927;-74
2022/03/07 13:50:24;;;;;;;;;;;18.60;68.30;;;;;;5112965;27;20026;-74
2022/03/07 13:53:00;;;;;;;;;;;18.10;68.70;;;;;;5113677;27;19923;-73
2022/03/07 13:55:27;;;;;;;;;;;18.10;68.50;;;;;;5113671;27;19934;-75
2022/03/07 13:57:55;;;;;;;;;;;19.30;69.20;;;;;;5113449;28;19927;-75
2022/03/07 14:00:24;;;;;;;;;;;19.20;67.50;;;;;;5112644;28;19976;-74
2022/03/07 14:02:55;;;;;;;;;;;17.70;68.30;;;;;;5113530;28;20378;-74
2022/03/07 14:05:22;;;;;;;;;;;16.90;68.60;;;;;;5113832;28;19980;-74
2022/03/07 14:07:52;;;;;;;;;;;17.40;69.00;;;;;;5113550;28;19923;-74
2022/03/07 14:10:19;;;;;;;;;;;17.90;68.10;;;;;;5113098;28;19923;-75
2022/03/07 14:12:51;;;;;;;;;;;18.10;69.10;;;;;;5113907;28;19924;-74
2022/03/07 14:15:23;;;;;;;;;;;17.50;68.10;;;;;;5113561;28;20030;-74
2022/03/07 14:17:56;;;;;;;;;;;17.90;69.20;;;;;;5113723;28;20394;-74
2022/03/07 14:20:22;;;;;;;;;;;18.10;69.70;;;;;;5113165;28;19923;-75
2022/03/07 14:22:49;;;;;;;;;;;17.30;69.00;;;;;;5113616;28;19930;-75